Middlebury, Connecticut
Current Conditions -  °F | °C
As of 10:52 AM on Saturday 20 Dec 2014 (Local Time) from KOXC Reporting Station
Overcast Overcast  
Wind Chill: 22°   Ceiling: 2500
Heat Index: 28°   Visibility: 10mi
Dew Point: 16°   Wind: 6mph
Humidity: 59%   Direction: 60°ENE
Pressure: 30.25"   Gusts: NA
Location:  41.53°N, 73.13°W
Report Text: KOXC 201552Z 06005KT 10SM OVC025 M02/M09 A3025
Loading
Personal Weather Stations






























Interactive Weather Map New forecast layout! Learn more

10-Day Weather Forecast

Advertisements
Track Severe Weather on mobile